createdAt,value
2019-05-16T00:01:44.070Z,0.20
2019-05-16T00:04:04.633Z,0.30
2019-05-16T00:06:25.197Z,0.40
2019-05-16T00:08:47.878Z,0.35
2019-05-16T00:11:08.596Z,0.20
2019-05-16T00:13:29.253Z,0.30
2019-05-16T00:15:49.675Z,0.30
2019-05-16T00:18:11.256Z,0.35
2019-05-16T00:20:31.753Z,0.53
2019-05-16T00:22:52.177Z,0.20
2019-05-16T00:25:12.845Z,0.30
2019-05-16T00:27:33.363Z,0.20
2019-05-16T00:29:53.861Z,0.30
2019-05-16T00:32:14.524Z,0.40
2019-05-16T00:34:35.111Z,0.20
2019-05-16T00:36:55.580Z,0.30
2019-05-16T00:39:16.061Z,0.30
2019-05-16T00:41:38.541Z,0.37
2019-05-16T00:43:58.930Z,0.23
2019-05-16T00:46:20.245Z,0.30
2019-05-16T00:48:40.935Z,0.40
2019-05-16T00:51:01.494Z,0.30
2019-05-16T00:53:22.046Z,0.53
2019-05-16T00:55:42.799Z,0.40
2019-05-16T00:58:04.178Z,0.28
2019-05-16T01:00:45.506Z,0.40
2019-05-16T01:03:08.009Z,0.23
2019-05-16T01:05:28.450Z,0.37
2019-05-16T01:07:48.947Z,0.40
2019-05-16T01:10:09.615Z,0.40
2019-05-16T01:12:30.148Z,0.30
2019-05-16T01:14:50.941Z,0.30
2019-05-16T01:17:11.509Z,0.50
2019-05-16T01:19:32.111Z,0.50
2019-05-16T01:21:52.712Z,0.40
2019-05-16T01:24:13.375Z,0.37
2019-05-16T01:26:33.795Z,0.30
2019-05-16T01:28:54.427Z,0.40
2019-05-16T01:31:15.019Z,0.50
2019-05-16T01:33:35.453Z,0.40
2019-05-16T01:35:58.280Z,0.50
2019-05-16T01:38:18.265Z,0.50
2019-05-16T01:40:38.901Z,0.50
2019-05-16T01:42:59.364Z,0.45
2019-05-16T01:45:20.330Z,0.40
2019-05-16T01:47:40.924Z,0.45
2019-05-16T01:50:01.523Z,0.45
2019-05-16T01:52:23.100Z,0.50
2019-05-16T01:54:43.612Z,0.50
2019-05-16T01:57:04.209Z,0.40
2019-05-16T01:59:24.627Z,0.30
2019-05-16T02:01:45.219Z,0.50
2019-05-16T02:04:05.693Z,0.30
2019-05-16T02:06:26.118Z,0.40
2019-05-16T02:08:48.729Z,0.50
2019-05-16T02:11:08.851Z,0.50
2019-05-16T02:13:30.346Z,0.37
2019-05-16T02:15:50.983Z,0.47
2019-05-16T02:18:11.521Z,0.57
2019-05-16T02:20:33.090Z,0.40
2019-05-16T02:22:53.596Z,0.37
2019-05-16T02:25:14.630Z,0.40
2019-05-16T02:27:38.183Z,0.40
2019-05-16T02:29:57.370Z,0.30
2019-05-16T02:32:17.810Z,0.40
2019-05-16T02:34:41.382Z,0.57
2019-05-16T02:37:18.403Z,0.50
2019-05-16T02:39:22.674Z,0.40
2019-05-16T02:41:46.277Z,0.50
2019-05-16T02:44:05.521Z,0.40
2019-05-16T02:46:26.045Z,0.50
2019-05-16T02:48:46.612Z,0.30
2019-05-16T02:51:07.144Z,0.57
2019-05-16T02:53:30.959Z,0.80
2019-05-16T02:55:51.569Z,1.80
2019-05-16T02:58:12.730Z,1.20
2019-05-16T03:00:35.488Z,1.20
2019-05-16T03:02:55.849Z,1.50
2019-05-16T03:05:16.522Z,2.22
2019-05-16T03:07:43.471Z,2.70
2019-05-16T03:10:02.171Z,2.77
2019-05-16T03:12:24.989Z,3.40
2019-05-16T03:14:46.960Z,2.47
2019-05-16T03:17:07.502Z,2.55
2019-05-16T03:19:31.188Z,3.25
2019-05-16T03:21:53.212Z,2.90
2019-05-16T03:24:13.827Z,3.25
2019-05-16T03:26:34.339Z,3.20
2019-05-16T03:28:54.955Z,2.70
2019-05-16T03:31:15.900Z,3.40
2019-05-16T03:33:48.442Z,3.10
2019-05-16T03:36:04.066Z,2.30
2019-05-16T03:38:21.358Z,3.80
2019-05-16T03:40:42.074Z,3.35
2019-05-16T03:43:02.687Z,3.20
2019-05-16T03:45:23.342Z,3.30
2019-05-16T03:47:43.880Z,3.72
2019-05-16T03:50:05.957Z,3.80
2019-05-16T03:52:26.489Z,3.75
2019-05-16T03:54:47.028Z,3.60
2019-05-16T03:57:07.538Z,3.90
2019-05-16T03:59:28.045Z,4.30
2019-05-16T04:01:51.119Z,3.42
2019-05-16T04:04:11.778Z,3.30
2019-05-16T04:06:32.642Z,3.50
2019-05-16T04:08:53.165Z,3.33
2019-05-16T04:11:13.765Z,3.20
2019-05-16T04:13:34.183Z,3.35
2019-05-16T04:15:54.782Z,3.45
2019-05-16T04:18:15.315Z,3.47
2019-05-16T04:20:36.602Z,3.30
2019-05-16T04:23:00.926Z,3.80
2019-05-16T04:25:21.675Z,3.25
2019-05-16T04:27:42.093Z,3.42
2019-05-16T04:30:03.007Z,3.55
2019-05-16T04:32:23.609Z,3.12
2019-05-16T04:34:44.158Z,3.02
2019-05-16T04:37:04.800Z,3.72
2019-05-16T04:39:25.344Z,3.47
2019-05-16T04:41:45.957Z,3.17
2019-05-16T04:44:06.489Z,3.20
2019-05-16T04:46:27.026Z,3.62
2019-05-16T04:48:50.505Z,3.58
2019-05-16T04:51:10.588Z,3.67
2019-05-16T04:53:31.943Z,3.33
2019-05-16T04:55:52.621Z,3.05
2019-05-16T04:58:13.490Z,3.02
2019-05-16T05:00:34.153Z,2.90
2019-05-16T05:02:54.704Z,3.20
2019-05-16T05:05:16.025Z,2.83
2019-05-16T05:07:36.659Z,3.10
2019-05-16T05:10:00.265Z,3.27
2019-05-16T05:12:20.773Z,3.67
2019-05-16T05:14:41.574Z,2.50
2019-05-16T05:17:05.354Z,2.75
2019-05-16T05:19:24.948Z,3.08
2019-05-16T05:21:45.504Z,3.17
2019-05-16T05:24:06.082Z,3.10
2019-05-16T05:26:27.634Z,2.90
2019-05-16T05:28:50.567Z,3.02
2019-05-16T05:31:10.995Z,3.08
2019-05-16T05:33:31.680Z,3.25
2019-05-16T05:35:52.214Z,3.83
2019-05-16T05:38:12.694Z,3.20
2019-05-16T05:40:33.295Z,2.80
2019-05-16T05:42:53.844Z,2.90
2019-05-16T05:45:14.456Z,3.42
2019-05-16T05:47:34.888Z,3.00
2019-05-16T05:49:55.358Z,3.35
2019-05-16T05:52:15.806Z,3.05
2019-05-16T05:54:36.406Z,2.92
2019-05-16T05:56:56.347Z,2.87
2019-05-16T05:59:16.881Z,2.77
2019-05-16T06:01:40.448Z,2.70
2019-05-16T06:03:59.779Z,1.80
2019-05-16T06:06:21.094Z,2.50
2019-05-16T06:08:41.741Z,2.22
2019-05-16T06:11:03.507Z,2.02
2019-05-16T06:13:25.992Z,2.00
2019-05-16T06:15:45.947Z,1.90
2019-05-16T06:18:06.911Z,1.80
2019-05-16T06:20:26.934Z,1.57
2019-05-16T06:22:47.479Z,1.90
2019-05-16T06:25:13.104Z,1.50
2019-05-16T06:29:50.685Z,1.40
2019-05-16T06:32:11.291Z,1.60
2019-05-16T06:34:31.802Z,1.45
2019-05-16T06:36:52.369Z,1.50
2019-05-16T06:39:13.094Z,1.10
2019-05-16T06:41:33.229Z,1.35
2019-05-16T06:43:53.175Z,1.20
2019-05-16T06:46:13.196Z,1.47
2019-05-16T06:48:33.170Z,1.65
2019-05-16T06:50:53.233Z,1.25
2019-05-16T06:53:13.152Z,1.98
2019-05-16T06:55:33.094Z,2.55
2019-05-16T06:57:53.644Z,1.80
2019-05-16T07:00:14.883Z,2.15
2019-05-16T07:02:34.901Z,2.00
2019-05-16T07:04:56.519Z,2.40
2019-05-16T07:07:16.829Z,2.47
2019-05-16T07:09:37.174Z,1.50
2019-05-16T07:11:59.757Z,1.70
2019-05-16T07:14:22.775Z,1.40
2019-05-16T07:16:41.855Z,1.70
2019-05-16T07:19:01.997Z,1.20
2019-05-16T07:21:22.450Z,1.42
2019-05-16T07:23:42.496Z,1.40
2019-05-16T07:26:02.496Z,1.30
2019-05-16T07:28:22.410Z,1.40
2019-05-16T07:30:42.372Z,1.67
2019-05-16T07:33:02.686Z,1.23
2019-05-16T07:35:23.280Z,1.27
2019-05-16T07:37:43.570Z,1.30
2019-05-16T07:40:15.942Z,1.40
2019-05-16T07:42:26.459Z,1.25
2019-05-16T07:44:46.426Z,1.32
2019-05-16T07:47:06.424Z,1.12
2019-05-16T07:49:26.723Z,1.20
2019-05-16T07:51:47.068Z,1.30
2019-05-16T07:54:07.309Z,1.40
2019-05-16T07:56:27.627Z,1.33
2019-05-16T07:58:50.480Z,1.43
2019-05-16T08:01:12.405Z,1.50
2019-05-16T08:03:31.780Z,1.70
2019-05-16T08:05:52.088Z,1.60
2019-05-16T08:08:12.576Z,1.50
2019-05-16T08:10:40.560Z,1.57
2019-05-16T08:12:55.902Z,1.70
2019-05-16T08:15:16.271Z,1.90
2019-05-16T08:17:36.453Z,1.60
2019-05-16T08:19:56.779Z,1.30
2019-05-16T08:22:17.051Z,1.20
2019-05-16T08:24:37.267Z,1.20
2019-05-16T08:27:01.044Z,1.17
2019-05-16T08:29:22.013Z,1.40
2019-05-16T08:31:43.073Z,1.27
2019-05-16T08:34:03.715Z,1.37
2019-05-16T08:36:24.148Z,1.50
2019-05-16T08:38:44.518Z,1.40
2019-05-16T08:41:12.189Z,1.53
2019-05-16T08:43:26.991Z,1.37
2019-05-16T08:45:47.484Z,1.40
2019-05-16T08:48:07.699Z,1.30
2019-05-16T08:50:27.991Z,1.70
2019-05-16T08:52:52.361Z,1.80
2019-05-16T08:55:12.632Z,1.40
2019-05-16T08:57:33.543Z,1.50
2019-05-16T08:59:53.981Z,1.60
2019-05-16T09:02:14.088Z,1.32
2019-05-16T09:04:34.519Z,1.30
2019-05-16T09:06:54.533Z,1.20
2019-05-16T09:09:29.511Z,1.40
2019-05-16T09:11:44.020Z,1.27
2019-05-16T09:13:58.493Z,1.20
2019-05-16T09:16:18.743Z,1.40
2019-05-16T09:18:41.308Z,1.30
2019-05-16T09:21:00.949Z,1.47
2019-05-16T09:23:21.158Z,1.20
2019-05-16T09:25:41.479Z,1.20
2019-05-16T09:28:01.733Z,1.20
2019-05-16T09:30:22.363Z,1.50
2019-05-16T09:32:43.144Z,1.40
2019-05-16T09:35:07.756Z,1.30
2019-05-16T09:37:30.770Z,1.20
2019-05-16T09:39:51.100Z,1.23
2019-05-16T09:42:11.331Z,1.23
2019-05-16T09:44:31.501Z,1.47
2019-05-16T09:46:51.709Z,1.30
2019-05-16T09:49:23.840Z,1.30
2019-05-16T09:51:37.986Z,1.57
2019-05-16T09:53:58.291Z,1.40
2019-05-16T09:56:18.528Z,1.47
2019-05-16T09:58:38.765Z,1.27
2019-05-16T10:00:59.153Z,1.10
2019-05-16T10:03:22.590Z,1.53
2019-05-16T10:05:41.414Z,1.20
2019-05-16T10:08:01.745Z,1.40
2019-05-16T10:10:27.587Z,1.50
2019-05-16T10:12:47.824Z,1.40
2019-05-16T10:15:08.966Z,1.50
2019-05-16T10:17:29.233Z,1.30
2019-05-16T10:19:49.409Z,1.43
2019-05-16T10:22:09.689Z,1.57
2019-05-16T10:24:30.175Z,1.57
2019-05-16T10:26:53.985Z,1.70
2019-05-16T10:29:12.463Z,1.53
2019-05-16T10:31:44.937Z,1.27
2019-05-16T10:33:58.207Z,1.73
2019-05-16T10:36:21.455Z,1.60
2019-05-16T10:38:39.109Z,1.60
2019-05-16T10:41:00.407Z,1.50
2019-05-16T10:43:20.626Z,1.70
2019-05-16T10:45:40.879Z,1.53
2019-05-16T10:48:01.257Z,1.73
2019-05-16T10:50:21.679Z,1.50
2019-05-16T10:52:42.018Z,1.80
2019-05-16T10:55:02.922Z,2.00
2019-05-16T10:57:23.368Z,2.03
2019-05-16T11:00:04.276Z,1.90
2019-05-16T11:02:07.542Z,2.00
2019-05-16T11:04:42.315Z,2.00
2019-05-16T11:06:49.694Z,1.92
2019-05-16T11:09:11.030Z,1.90
2019-05-16T11:11:32.218Z,2.12
2019-05-16T11:13:52.468Z,2.10
2019-05-16T11:16:12.785Z,2.10
2019-05-16T11:18:32.928Z,1.90
2019-05-16T11:20:54.178Z,1.60
2019-05-16T11:23:14.516Z,1.57
2019-05-16T11:25:36.704Z,1.73
2019-05-16T11:27:57.537Z,1.50
2019-05-16T11:30:18.569Z,1.53
2019-05-16T11:32:38.901Z,1.80
2019-05-16T11:35:00.130Z,1.47
2019-05-16T11:37:20.482Z,1.63
2019-05-16T11:39:40.786Z,1.63
2019-05-16T11:42:01.260Z,2.47
2019-05-16T11:44:21.504Z,1.90
2019-05-16T11:46:41.827Z,1.80
2019-05-16T11:49:02.115Z,1.77
2019-05-16T11:51:22.377Z,1.87
2019-05-16T11:53:42.683Z,1.90
2019-05-16T11:56:02.995Z,1.77
2019-05-16T11:58:23.406Z,1.90
2019-05-16T12:00:43.752Z,1.87
2019-05-16T12:03:04.088Z,1.90
2019-05-16T12:05:26.952Z,2.63
2019-05-16T12:07:48.572Z,1.83
2019-05-16T12:10:09.087Z,1.90
2019-05-16T12:12:30.123Z,2.47
2019-05-16T12:14:50.096Z,2.00
2019-05-16T12:17:10.153Z,1.80
2019-05-16T12:19:34.668Z,2.10
2019-05-16T12:21:51.741Z,2.02
2019-05-16T12:24:28.000Z,1.77
2019-05-16T12:26:33.918Z,2.27
2019-05-16T12:28:54.135Z,2.67
2019-05-16T12:31:17.172Z,1.80
2019-05-16T12:33:37.491Z,2.43
2019-05-16T12:35:58.173Z,2.30
2019-05-16T12:38:18.471Z,2.33
2019-05-16T12:40:38.866Z,2.30
2019-05-16T12:42:59.190Z,2.30
2019-05-16T12:45:19.865Z,2.60
2019-05-16T12:47:40.128Z,2.27
2019-05-16T12:50:00.569Z,2.37
2019-05-16T12:52:20.771Z,2.30
2019-05-16T12:54:41.050Z,2.40
2019-05-16T12:57:01.410Z,2.40
2019-05-16T12:59:21.847Z,2.60
2019-05-16T13:01:42.100Z,2.67
2019-05-16T13:04:02.330Z,2.60
2019-05-16T13:06:22.761Z,2.53
2019-05-16T13:08:43.108Z,2.13
2019-05-16T13:11:03.415Z,2.50
2019-05-16T13:13:23.633Z,2.73
2019-05-16T13:15:43.854Z,2.30
2019-05-16T13:18:04.183Z,2.30
2019-05-16T13:20:26.633Z,2.83
2019-05-16T13:22:47.331Z,2.57
2019-05-16T13:25:08.128Z,3.10
2019-05-16T13:27:28.488Z,2.60
2019-05-16T13:29:48.747Z,2.57
2019-05-16T13:32:09.045Z,2.70
2019-05-16T13:34:29.345Z,2.93
2019-05-16T13:36:49.592Z,2.67
2019-05-16T13:39:09.927Z,3.03
2019-05-16T13:41:30.235Z,2.77
2019-05-16T13:43:50.585Z,3.17
2019-05-16T13:46:10.941Z,3.00
2019-05-16T13:48:31.175Z,3.20
2019-05-16T13:50:51.437Z,2.73
2019-05-16T13:53:11.740Z,3.50
2019-05-16T13:55:31.997Z,3.10
2019-05-16T13:57:52.214Z,3.13
2019-05-16T14:00:13.215Z,3.50
2019-05-16T14:02:33.458Z,3.50
2019-05-16T14:04:53.699Z,3.60
2019-05-16T14:07:16.986Z,3.80
2019-05-16T14:09:37.853Z,3.90
2019-05-16T14:11:57.835Z,3.97
2019-05-16T14:14:33.578Z,3.60
2019-05-16T14:16:40.039Z,3.60
2019-05-16T14:19:00.301Z,3.52
2019-05-16T14:21:20.524Z,3.73
2019-05-16T14:23:41.108Z,3.87
2019-05-16T14:26:01.038Z,3.58
2019-05-16T14:28:21.590Z,3.47
2019-05-16T14:30:41.637Z,3.42
2019-05-16T14:33:02.888Z,3.15
2019-05-16T14:35:23.275Z,3.20
2019-05-16T14:37:43.301Z,3.20
2019-05-16T14:40:04.514Z,2.98
2019-05-16T14:42:27.795Z,3.27
2019-05-16T14:45:03.972Z,3.55
2019-05-16T14:47:09.150Z,3.65
2019-05-16T14:49:29.235Z,3.30
2019-05-16T14:51:52.090Z,3.50
2019-05-16T14:56:31.188Z,3.50
2019-05-16T14:58:51.085Z,3.58
2019-05-16T15:01:11.133Z,3.72
2019-05-16T15:03:31.806Z,3.37
2019-05-16T15:05:55.297Z,3.55
2019-05-16T15:08:17.926Z,3.75
2019-05-16T15:12:57.559Z,3.12
2019-05-16T15:15:24.497Z,3.62
2019-05-16T15:17:41.615Z,3.15
2019-05-16T15:20:02.168Z,3.40
2019-05-16T15:22:22.688Z,3.40
2019-05-16T15:24:43.300Z,3.70
2019-05-16T15:27:03.438Z,3.62
2019-05-16T15:29:23.739Z,3.10
2019-05-16T15:31:46.567Z,3.17
2019-05-16T15:34:06.517Z,3.30
2019-05-16T15:36:27.231Z,3.40
2019-05-16T15:38:47.294Z,3.12
2019-05-16T15:41:08.946Z,3.30
2019-05-16T15:43:30.529Z,3.58
2019-05-16T15:45:53.244Z,3.27
2019-05-16T15:50:32.756Z,3.25
2019-05-16T15:52:53.063Z,3.50
2019-05-16T15:55:13.645Z,3.10
2019-05-16T15:57:34.604Z,3.00
2019-05-16T15:59:57.567Z,3.55
2019-05-16T16:02:17.720Z,3.75
2019-05-16T16:04:38.403Z,3.35
2019-05-16T16:06:58.864Z,3.50
2019-05-16T16:09:18.996Z,3.67
2019-05-16T16:11:39.096Z,3.02
2019-05-16T16:13:59.599Z,3.25
2019-05-16T16:16:20.235Z,3.50
2019-05-16T16:18:40.214Z,3.50
2019-05-16T16:21:00.457Z,3.43
2019-05-16T16:23:21.243Z,3.52
2019-05-16T16:25:42.007Z,3.67
2019-05-16T16:28:02.332Z,3.58
2019-05-16T16:30:23.055Z,3.30
2019-05-16T16:32:43.042Z,3.80
2019-05-16T16:35:03.043Z,3.67
2019-05-16T16:37:23.238Z,3.72
2019-05-16T16:39:43.491Z,3.43
2019-05-16T16:42:04.157Z,3.40
2019-05-16T16:44:27.422Z,3.70
2019-05-16T16:46:48.052Z,3.33
2019-05-16T16:49:08.639Z,3.17
2019-05-16T16:51:29.015Z,3.47
2019-05-16T16:53:49.681Z,2.92
2019-05-16T16:56:09.842Z,2.98
2019-05-16T16:58:29.785Z,2.92
2019-05-16T17:00:50.042Z,3.40
2019-05-16T17:03:11.252Z,3.25
2019-05-16T17:05:31.893Z,3.25
2019-05-16T17:07:52.564Z,3.17
2019-05-16T17:10:15.889Z,2.90
2019-05-16T17:12:41.335Z,3.00
2019-05-16T17:14:59.440Z,3.23
2019-05-16T17:17:20.046Z,3.17
2019-05-16T17:19:40.240Z,2.92
2019-05-16T17:22:13.611Z,3.30
2019-05-16T17:24:22.986Z,3.37
2019-05-16T17:26:47.566Z,3.50
2019-05-16T17:29:06.811Z,3.50
2019-05-16T17:31:27.338Z,3.60
2019-05-16T17:33:47.413Z,3.70
2019-05-16T17:36:09.105Z,4.00
2019-05-16T17:38:29.552Z,3.80
2019-05-16T17:40:49.600Z,3.20
2019-05-16T17:43:10.239Z,2.83
2019-05-16T17:45:30.379Z,3.08
2019-05-16T17:47:50.424Z,2.80
2019-05-16T17:50:11.150Z,2.65
2019-05-16T17:52:31.680Z,2.67
2019-05-16T17:54:53.362Z,2.60
2019-05-16T17:57:13.386Z,2.70
2019-05-16T17:59:34.100Z,2.80
2019-05-16T18:01:56.804Z,2.75
2019-05-16T18:04:17.315Z,2.55
2019-05-16T18:06:37.409Z,2.27
2019-05-16T18:08:57.457Z,2.62
2019-05-16T18:11:17.867Z,2.60
2019-05-16T18:13:38.099Z,2.60
2019-05-16T18:15:58.859Z,2.75
2019-05-16T18:18:18.787Z,2.70
2019-05-16T18:20:38.693Z,3.10
2019-05-16T18:22:59.257Z,3.00
2019-05-16T18:25:19.945Z,3.08
2019-05-16T18:27:40.003Z,3.00
2019-05-16T18:30:00.622Z,2.70
2019-05-16T18:32:20.825Z,3.17
2019-05-16T18:34:41.419Z,3.10
2019-05-16T18:37:01.471Z,2.98
2019-05-16T18:39:21.580Z,2.92
2019-05-16T18:41:41.628Z,2.60
2019-05-16T18:44:01.658Z,2.50
2019-05-16T18:46:21.620Z,2.62
2019-05-16T18:48:42.526Z,2.60
2019-05-16T18:51:03.129Z,2.80
2019-05-16T18:53:23.772Z,2.60
2019-05-16T18:55:43.750Z,2.77
2019-05-16T18:58:05.654Z,2.40
2019-05-16T19:00:26.836Z,3.00
2019-05-16T19:02:47.849Z,2.70
2019-05-16T19:05:09.269Z,2.75
2019-05-16T19:07:29.420Z,2.12
2019-05-16T19:09:49.960Z,2.50
2019-05-16T19:12:10.014Z,2.60
2019-05-16T19:14:30.697Z,2.50
2019-05-16T19:16:51.332Z,2.62
2019-05-16T19:19:11.864Z,2.60
2019-05-16T19:21:32.515Z,3.00
2019-05-16T19:23:53.129Z,2.75
2019-05-16T19:26:16.677Z,3.10
2019-05-16T19:28:37.553Z,2.70
2019-05-16T19:30:58.270Z,2.98
2019-05-16T19:33:18.163Z,3.35
2019-05-16T19:35:38.134Z,3.10
2019-05-16T19:37:59.857Z,2.70
2019-05-16T19:40:20.384Z,2.77
2019-05-16T19:42:40.976Z,2.85
2019-05-16T19:45:01.050Z,3.45
2019-05-16T19:47:32.978Z,2.75
2019-05-16T19:49:42.960Z,3.10
2019-05-16T19:52:03.635Z,3.10
2019-05-16T19:54:24.168Z,2.77
2019-05-16T19:56:44.147Z,3.20
2019-05-16T19:59:06.481Z,3.52
2019-05-16T20:01:27.383Z,3.83
2019-05-16T20:03:48.171Z,3.58
2019-05-16T20:06:09.265Z,3.25
2019-05-16T20:08:29.240Z,3.40
2019-05-16T20:10:49.278Z,3.70
2019-05-16T20:13:09.374Z,3.20
2019-05-16T20:15:30.072Z,3.80
2019-05-16T20:17:55.139Z,4.53
2019-05-16T20:20:18.268Z,4.15
2019-05-16T20:22:37.870Z,5.28
2019-05-16T20:24:57.829Z,4.85
2019-05-16T20:27:19.605Z,3.80
2019-05-16T20:29:39.636Z,4.07
2019-05-16T20:32:00.151Z,4.58
2019-05-16T20:34:20.155Z,4.05
2019-05-16T20:36:40.176Z,4.03
2019-05-16T20:39:00.055Z,3.85
2019-05-16T20:41:20.585Z,3.67
2019-05-16T20:43:41.203Z,3.27
2019-05-16T20:46:01.188Z,3.55
2019-05-16T20:48:21.225Z,3.35
2019-05-16T20:50:41.238Z,3.37
2019-05-16T20:53:01.211Z,3.22
2019-05-16T20:55:21.224Z,3.17
2019-05-16T20:57:41.294Z,3.98
2019-05-16T21:00:01.274Z,3.70
2019-05-16T21:02:21.952Z,3.50
2019-05-16T21:04:41.877Z,4.28
2019-05-16T21:07:10.037Z,4.03
2019-05-16T21:09:23.823Z,4.00
2019-05-16T21:11:44.114Z,4.23
2019-05-16T21:14:06.972Z,4.80
2019-05-16T21:16:27.036Z,4.63
2019-05-16T21:18:47.110Z,4.65
2019-05-16T21:21:07.600Z,4.60
2019-05-16T21:23:28.610Z,4.08
2019-05-16T21:25:49.278Z,4.20
2019-05-16T21:28:09.864Z,4.17
2019-05-16T21:30:30.241Z,4.17
2019-05-16T21:32:50.835Z,4.33
2019-05-16T21:35:11.667Z,5.20
2019-05-16T21:37:31.620Z,4.75
2019-05-16T21:39:52.070Z,5.37
2019-05-16T21:42:12.290Z,5.10
2019-05-16T21:44:32.338Z,4.80
2019-05-16T21:46:53.553Z,4.83
2019-05-16T21:49:13.645Z,4.72
2019-05-16T21:51:34.332Z,5.03
2019-05-16T21:53:56.353Z,5.75
2019-05-16T21:56:17.655Z,5.45
2019-05-16T21:58:37.773Z,5.55
2019-05-16T22:00:59.358Z,6.35
2019-05-16T22:03:21.334Z,6.08
2019-05-16T22:05:42.004Z,6.05
2019-05-16T22:08:02.644Z,5.90
2019-05-16T22:10:22.664Z,6.08
2019-05-16T22:12:47.481Z,5.97
2019-05-16T22:15:06.921Z,4.67
2019-05-16T22:17:29.155Z,5.42
2019-05-16T22:19:49.794Z,6.58
2019-05-16T22:22:10.376Z,6.62
2019-05-16T22:24:31.374Z,6.50
2019-05-16T22:26:52.018Z,6.47
2019-05-16T22:29:12.159Z,7.22
2019-05-16T22:31:36.517Z,6.67
2019-05-16T22:33:58.452Z,6.83
2019-05-16T22:36:19.433Z,6.28
2019-05-16T22:38:39.488Z,7.83
2019-05-16T22:41:00.136Z,6.92
2019-05-16T22:43:20.589Z,7.53
2019-05-16T22:45:41.139Z,7.00
2019-05-16T22:48:01.737Z,7.40
2019-05-16T22:50:22.373Z,7.33
2019-05-16T22:52:43.020Z,6.97
2019-05-16T22:55:03.095Z,7.50
2019-05-16T22:57:23.622Z,7.45
2019-05-16T22:59:43.795Z,7.08
2019-05-16T23:02:11.483Z,7.33
2019-05-16T23:04:28.435Z,7.75
2019-05-16T23:06:48.376Z,6.95
2019-05-16T23:09:08.419Z,7.03
2019-05-16T23:11:28.380Z,7.62
2019-05-16T23:13:48.911Z,7.67
2019-05-16T23:16:09.397Z,7.17
2019-05-16T23:18:29.882Z,7.85
2019-05-16T23:20:50.407Z,7.70
2019-05-16T23:23:11.142Z,7.35
2019-05-16T23:25:31.960Z,7.58
2019-05-16T23:27:52.595Z,7.62
2019-05-16T23:30:13.516Z,6.83
2019-05-16T23:32:36.386Z,7.30
2019-05-16T23:34:57.292Z,8.13
2019-05-16T23:37:17.946Z,8.15
2019-05-16T23:39:38.495Z,8.18
2019-05-16T23:41:58.460Z,7.92
2019-05-16T23:44:19.018Z,7.67
2019-05-16T23:46:39.568Z,7.97
2019-05-16T23:49:00.093Z,8.38
2019-05-16T23:51:20.621Z,8.28
2019-05-16T23:53:40.535Z,8.38
2019-05-16T23:56:00.612Z,8.63
2019-05-16T23:58:20.728Z,7.60
